createdAt,value
2018-03-04T00:00:36.250Z,987.01
2018-03-04T00:01:36.247Z,987.07
2018-03-04T00:02:36.241Z,987.01
2018-03-04T00:03:36.244Z,987.01
2018-03-04T00:04:37.587Z,987.05
2018-03-04T00:05:36.192Z,987.04
2018-03-04T00:06:38.482Z,986.99
2018-03-04T00:07:36.158Z,987.04
2018-03-04T00:08:40.973Z,987.03
2018-03-04T00:09:36.137Z,987.05
2018-03-04T00:10:36.167Z,987.04
2018-03-04T00:11:36.237Z,987.09
2018-03-04T00:12:36.041Z,987.06
2018-03-04T00:13:36.083Z,987.08
2018-03-04T00:14:37.029Z,987.04
2018-03-04T00:15:36.509Z,987.05
2018-03-04T00:16:37.958Z,987.06
2018-03-04T00:17:35.911Z,987.10
2018-03-04T00:18:35.969Z,987.07
2018-03-04T00:19:36.031Z,987.06
2018-03-04T00:20:35.965Z,987.08
2018-03-04T00:21:35.936Z,987.06
2018-03-04T00:22:35.894Z,987.06
2018-03-04T00:23:35.921Z,987.08
2018-03-04T00:24:35.861Z,987.03
2018-03-04T00:25:35.866Z,987.06
2018-03-04T00:26:35.793Z,987.08
2018-03-04T00:27:35.733Z,987.08
2018-03-04T00:28:35.829Z,987.08
2018-03-04T00:29:35.718Z,987.11
2018-03-04T00:30:35.749Z,987.11
2018-03-04T00:31:35.705Z,987.09
2018-03-04T00:32:35.817Z,987.07
2018-03-04T00:33:36.634Z,987.06
2018-03-04T00:34:35.614Z,987.05
2018-03-04T00:35:36.484Z,987.08
2018-03-04T00:36:36.241Z,987.10
2018-03-04T00:37:36.049Z,987.11
2018-03-04T00:38:35.529Z,987.12
2018-03-04T00:39:35.568Z,987.09
2018-03-04T00:40:35.540Z,987.08
2018-03-04T00:41:35.614Z,987.09
2018-03-04T00:42:35.469Z,987.06
2018-03-04T00:43:35.533Z,987.13
2018-03-04T00:44:56.983Z,987.13
2018-03-04T00:45:35.437Z,987.13
2018-03-04T00:46:35.492Z,987.14
2018-03-04T00:47:35.349Z,987.16
2018-03-04T00:48:35.460Z,987.16
2018-03-04T00:49:35.360Z,987.17
2018-03-04T00:50:35.553Z,987.16
2018-03-04T00:51:35.394Z,987.18
2018-03-04T00:52:35.248Z,987.12
2018-03-04T00:53:35.303Z,987.14
2018-03-04T00:54:35.260Z,987.11
2018-03-04T00:55:35.476Z,987.18
2018-03-04T00:56:38.026Z,987.13
2018-03-04T00:57:35.306Z,987.11
2018-03-04T00:58:35.253Z,987.08
2018-03-04T00:59:35.079Z,987.13
2018-03-04T01:00:35.135Z,987.10
2018-03-04T01:01:35.154Z,987.11
2018-03-04T01:02:35.095Z,987.10
2018-03-04T01:03:35.014Z,987.08
2018-03-04T01:04:35.122Z,987.10
2018-03-04T01:05:35.178Z,987.07
2018-03-04T01:06:34.948Z,987.06
2018-03-04T01:07:35.018Z,987.09
2018-03-04T01:08:35.044Z,987.07
2018-03-04T01:09:34.964Z,987.12
2018-03-04T01:10:35.042Z,987.13
2018-03-04T01:11:34.940Z,987.11
2018-03-04T01:12:35.532Z,987.10
2018-03-04T01:13:34.922Z,987.04
2018-03-04T01:14:36.861Z,987.04
2018-03-04T01:15:34.951Z,987.03
2018-03-04T01:16:34.837Z,987.00
2018-03-04T01:17:34.892Z,986.98
2018-03-04T01:18:34.760Z,986.98
2018-03-04T01:19:34.801Z,986.93
2018-03-04T01:20:35.522Z,986.95
2018-03-04T01:21:34.767Z,986.92
2018-03-04T01:22:34.919Z,986.89
2018-03-04T01:23:34.716Z,986.92
2018-03-04T01:24:34.714Z,986.91
2018-03-04T01:25:34.631Z,986.87
2018-03-04T01:26:35.454Z,986.86
2018-03-04T01:27:34.617Z,986.82
2018-03-04T01:28:34.753Z,986.82
2018-03-04T01:29:34.531Z,986.84
2018-03-04T01:30:34.715Z,986.78
2018-03-04T01:31:34.505Z,986.78
2018-03-04T01:32:34.512Z,986.82
2018-03-04T01:33:34.549Z,986.81
2018-03-04T01:34:34.425Z,986.78
2018-03-04T01:35:34.420Z,986.76
2018-03-04T01:36:34.507Z,986.77
2018-03-04T01:37:35.811Z,986.75
2018-03-04T01:38:34.326Z,986.75
2018-03-04T01:39:34.366Z,986.78
2018-03-04T01:40:36.014Z,986.77
2018-03-04T01:41:35.006Z,986.78
2018-03-04T01:42:34.349Z,986.74
2018-03-04T01:43:35.130Z,986.79
2018-03-04T01:44:34.447Z,986.79
2018-03-04T01:45:34.242Z,986.77
2018-03-04T01:46:34.241Z,986.78
2018-03-04T01:47:34.161Z,986.76
2018-03-04T01:48:34.197Z,986.72
2018-03-04T01:49:34.630Z,986.72
2018-03-04T01:50:34.128Z,986.70
2018-03-04T01:51:34.193Z,986.71
2018-03-04T01:52:34.069Z,986.67
2018-03-04T01:53:34.126Z,986.64
2018-03-04T01:54:34.051Z,986.63
2018-03-04T01:55:34.099Z,986.65
2018-03-04T01:56:34.007Z,986.62
2018-03-04T01:57:33.956Z,986.62
2018-03-04T01:58:33.964Z,986.66
2018-03-04T01:59:33.938Z,986.63
2018-03-04T02:00:34.036Z,986.65
2018-03-04T02:01:33.933Z,986.63
2018-03-04T02:02:33.869Z,986.66
2018-03-04T02:03:34.514Z,986.63
2018-03-04T02:04:33.793Z,986.69
2018-03-04T02:05:33.831Z,986.65
2018-03-04T02:06:33.804Z,986.63
2018-03-04T02:07:34.051Z,986.63
2018-03-04T02:08:34.082Z,986.65
2018-03-04T02:09:33.716Z,986.67
2018-03-04T02:10:34.479Z,986.66
2018-03-04T02:11:33.732Z,986.67
2018-03-04T02:12:33.738Z,986.65
2018-03-04T02:13:33.670Z,986.65
2018-03-04T02:14:33.631Z,986.61
2018-03-04T02:15:34.620Z,986.63
2018-03-04T02:16:33.655Z,986.63
2018-03-04T02:17:33.712Z,986.60
2018-03-04T02:18:33.582Z,986.58
2018-03-04T02:19:33.556Z,986.56
2018-03-04T02:20:35.488Z,986.54
2018-03-04T02:21:35.060Z,986.57
2018-03-04T02:22:34.055Z,986.51
2018-03-04T02:23:33.481Z,986.50
2018-03-04T02:24:33.413Z,986.53
2018-03-04T02:25:33.428Z,986.51
2018-03-04T02:26:33.417Z,986.53
2018-03-04T02:27:33.378Z,986.49
2018-03-04T02:28:33.677Z,986.48
2018-03-04T02:29:33.986Z,986.52
2018-03-04T02:30:33.334Z,986.50
2018-03-04T02:31:33.257Z,986.55
2018-03-04T02:32:33.303Z,986.50
2018-03-04T02:33:33.453Z,986.56
2018-03-04T02:34:33.295Z,986.56
2018-03-04T02:35:33.241Z,986.55
2018-03-04T02:36:33.187Z,986.50
2018-03-04T02:37:34.009Z,986.51
2018-03-04T02:38:33.157Z,986.51
2018-03-04T02:39:33.144Z,986.47
2018-03-04T02:40:33.101Z,986.46
2018-03-04T02:41:33.152Z,986.46
2018-03-04T02:42:33.085Z,986.50
2018-03-04T02:43:33.114Z,986.42
2018-03-04T02:44:33.083Z,986.42
2018-03-04T02:45:33.008Z,986.41
2018-03-04T02:46:33.013Z,986.41
2018-03-04T02:47:32.982Z,986.37
2018-03-04T02:48:33.551Z,986.38
2018-03-04T02:49:34.061Z,986.33
2018-03-04T02:50:32.913Z,986.40
2018-03-04T02:51:32.894Z,986.38
2018-03-04T02:52:32.932Z,986.36
2018-03-04T02:53:32.857Z,986.40
2018-03-04T02:54:33.676Z,986.38
2018-03-04T02:55:32.857Z,986.38
2018-03-04T02:56:32.906Z,986.39
2018-03-04T02:57:32.824Z,986.40
2018-03-04T02:58:32.784Z,986.39
2018-03-04T02:59:32.779Z,986.34
2018-03-04T03:00:33.501Z,986.35
2018-03-04T03:01:32.712Z,986.31
2018-03-04T03:02:32.707Z,986.35
2018-03-04T03:03:32.635Z,986.36
2018-03-04T03:04:32.642Z,986.30
2018-03-04T03:05:32.813Z,986.32
2018-03-04T03:06:33.649Z,986.31
2018-03-04T03:07:32.612Z,986.34
2018-03-04T03:08:32.681Z,986.29
2018-03-04T03:09:32.577Z,986.33
2018-03-04T03:10:32.725Z,986.36
2018-03-04T03:11:33.053Z,986.36
2018-03-04T03:12:32.507Z,986.36
2018-03-04T03:13:33.124Z,986.36
2018-03-04T03:14:32.463Z,986.35
2018-03-04T03:15:32.420Z,986.33
2018-03-04T03:16:32.493Z,986.32
2018-03-04T03:17:32.486Z,986.32
2018-03-04T03:18:32.480Z,986.30
2018-03-04T03:19:33.048Z,986.30
2018-03-04T03:20:32.998Z,986.27
2018-03-04T03:21:32.443Z,986.30
2018-03-04T03:22:32.339Z,986.26
2018-03-04T03:23:32.974Z,986.26
2018-03-04T03:24:32.521Z,986.23
2018-03-04T03:25:32.515Z,986.21
2018-03-04T03:26:32.195Z,986.23
2018-03-04T03:27:32.185Z,986.19
2018-03-04T03:28:32.245Z,986.18
2018-03-04T03:29:32.138Z,986.16
2018-03-04T03:30:32.142Z,986.14
2018-03-04T03:31:32.478Z,986.14
2018-03-04T03:32:32.049Z,986.13
2018-03-04T03:33:32.072Z,986.07
2018-03-04T03:34:32.082Z,986.10
2018-03-04T03:35:32.090Z,986.14
2018-03-04T03:36:32.072Z,986.11
2018-03-04T03:37:32.061Z,986.09
2018-03-04T03:38:31.941Z,986.09
2018-03-04T03:39:32.132Z,986.08
2018-03-04T03:40:34.465Z,986.08
2018-03-04T03:41:34.514Z,986.09
2018-03-04T03:42:31.954Z,986.05
2018-03-04T03:43:31.932Z,985.97
2018-03-04T03:44:31.913Z,986.04
2018-03-04T03:45:32.000Z,986.07
2018-03-04T03:46:32.460Z,986.02
2018-03-04T03:47:32.558Z,985.99
2018-03-04T03:48:33.510Z,985.99
2018-03-04T03:49:31.775Z,986.00
2018-03-04T03:50:31.768Z,986.00
2018-03-04T03:51:33.549Z,985.97
2018-03-04T03:52:31.656Z,985.99
2018-03-04T03:53:31.714Z,985.97
2018-03-04T03:54:33.538Z,985.97
2018-03-04T03:55:31.631Z,985.95
2018-03-04T03:56:31.578Z,985.94
2018-03-04T03:57:31.581Z,985.94
2018-03-04T03:58:31.560Z,985.94
2018-03-04T03:59:31.573Z,985.91
2018-03-04T04:00:31.555Z,985.91
2018-03-04T04:01:31.634Z,985.93
2018-03-04T04:02:31.491Z,985.93
2018-03-04T04:03:31.510Z,985.91
2018-03-04T04:04:32.020Z,985.91
2018-03-04T04:05:32.004Z,985.96
2018-03-04T04:06:31.606Z,985.95
2018-03-04T04:07:31.376Z,985.98
2018-03-04T04:08:31.476Z,985.94
2018-03-04T04:09:32.052Z,985.94
2018-03-04T04:10:31.528Z,985.95
2018-03-04T04:11:31.311Z,985.89
2018-03-04T04:12:31.337Z,985.87
2018-03-04T04:13:31.678Z,985.89
2018-03-04T04:14:31.404Z,985.87
2018-03-04T04:15:31.186Z,985.90
2018-03-04T04:16:32.069Z,985.89
2018-03-04T04:17:31.254Z,985.86
2018-03-04T04:18:31.165Z,985.89
2018-03-04T04:19:31.207Z,985.85
2018-03-04T04:20:31.228Z,985.86
2018-03-04T04:21:32.643Z,985.88
2018-03-04T04:22:31.155Z,985.87
2018-03-04T04:23:31.313Z,985.84
2018-03-04T04:24:31.090Z,985.85
2018-03-04T04:25:31.055Z,985.81
2018-03-04T04:26:31.127Z,985.83
2018-03-04T04:27:33.129Z,985.84
2018-03-04T04:28:31.563Z,985.86
2018-03-04T04:29:30.915Z,985.88
2018-03-04T04:30:30.979Z,985.89
2018-03-04T04:31:30.962Z,985.88
2018-03-04T04:32:34.038Z,985.91
2018-03-04T04:33:30.978Z,985.88
2018-03-04T04:34:30.824Z,985.81
2018-03-04T04:35:30.760Z,985.79
2018-03-04T04:36:30.810Z,985.77
2018-03-04T04:37:30.729Z,985.73
2018-03-04T04:38:30.702Z,985.74
2018-03-04T04:39:30.689Z,985.73
2018-03-04T04:40:30.667Z,985.74
2018-03-04T04:41:30.639Z,985.76
2018-03-04T04:42:30.637Z,985.75
2018-03-04T04:43:30.598Z,985.79
2018-03-04T04:44:30.662Z,985.77
2018-03-04T04:45:30.563Z,985.77
2018-03-04T04:46:30.533Z,985.75
2018-03-04T04:47:30.587Z,985.71
2018-03-04T04:48:30.503Z,985.71
2018-03-04T04:49:30.497Z,985.67
2018-03-04T04:50:30.469Z,985.68
2018-03-04T04:51:30.440Z,985.69
2018-03-04T04:52:30.414Z,985.66
2018-03-04T04:53:30.478Z,985.67
2018-03-04T04:54:30.382Z,985.62
2018-03-04T04:55:30.356Z,985.63
2018-03-04T04:56:30.332Z,985.61
2018-03-04T04:57:30.324Z,985.60
2018-03-04T04:58:30.294Z,985.60
2018-03-04T04:59:30.298Z,985.63
2018-03-04T05:00:30.266Z,985.59
2018-03-04T05:01:30.238Z,985.61
2018-03-04T05:02:30.222Z,985.61
2018-03-04T05:03:30.201Z,985.62
2018-03-04T05:04:30.213Z,985.68
2018-03-04T05:05:30.165Z,985.65
2018-03-04T05:06:30.150Z,985.64
2018-03-04T05:07:30.111Z,985.64
2018-03-04T05:08:30.103Z,985.66
2018-03-04T05:09:30.116Z,985.60
2018-03-04T05:10:30.089Z,985.57
2018-03-04T05:11:30.074Z,985.61
2018-03-04T05:12:30.027Z,985.60
2018-03-04T05:13:30.001Z,985.57
2018-03-04T05:14:30.267Z,985.56
2018-03-04T05:15:30.000Z,985.56
2018-03-04T05:16:29.942Z,985.53
2018-03-04T05:17:29.927Z,985.53
2018-03-04T05:18:29.903Z,985.50
2018-03-04T05:19:29.881Z,985.45
2018-03-04T05:20:29.889Z,985.44
2018-03-04T05:21:29.835Z,985.47
2018-03-04T05:22:29.889Z,985.47
2018-03-04T05:23:29.804Z,985.51
2018-03-04T05:24:29.787Z,985.50
2018-03-04T05:25:29.762Z,985.51
2018-03-04T05:26:29.749Z,985.50
2018-03-04T05:27:29.734Z,985.46
2018-03-04T05:28:29.730Z,985.49
2018-03-04T05:29:29.676Z,985.46
2018-03-04T05:30:29.702Z,985.48
2018-03-04T05:31:29.638Z,985.45
2018-03-04T05:32:29.623Z,985.46
2018-03-04T05:33:29.665Z,985.46
2018-03-04T05:34:29.906Z,985.42
2018-03-04T05:35:29.564Z,985.41
2018-03-04T05:36:29.542Z,985.38
2018-03-04T05:37:29.534Z,985.37
2018-03-04T05:38:29.501Z,985.34
2018-03-04T05:39:29.490Z,985.34
2018-03-04T05:40:29.464Z,985.30
2018-03-04T05:41:29.447Z,985.28
2018-03-04T05:42:29.436Z,985.30
2018-03-04T05:43:29.471Z,985.25
2018-03-04T05:44:29.392Z,985.27
2018-03-04T05:45:29.369Z,985.32
2018-03-04T05:46:29.336Z,985.29
2018-03-04T05:47:29.320Z,985.29
2018-03-04T05:48:29.296Z,985.28
2018-03-04T05:49:29.290Z,985.25
2018-03-04T05:50:29.268Z,985.28
2018-03-04T05:51:29.247Z,985.25
2018-03-04T05:52:29.230Z,985.27
2018-03-04T05:53:29.211Z,985.29
2018-03-04T05:54:29.212Z,985.26
2018-03-04T05:55:29.206Z,985.25
2018-03-04T05:56:29.144Z,985.26
2018-03-04T05:57:29.127Z,985.27
2018-03-04T05:58:29.113Z,985.28
2018-03-04T05:59:29.157Z,985.24
2018-03-04T06:00:29.070Z,985.26
2018-03-04T06:01:29.056Z,985.28
2018-03-04T06:02:29.029Z,985.25
2018-03-04T06:03:29.015Z,985.28
2018-03-04T06:04:28.992Z,985.26
2018-03-04T06:05:29.002Z,985.27
2018-03-04T06:06:28.947Z,985.23
2018-03-04T06:07:28.959Z,985.24
2018-03-04T06:08:28.900Z,985.25
2018-03-04T06:09:28.890Z,985.25
2018-03-04T06:10:28.875Z,985.27
2018-03-04T06:11:28.843Z,985.32
2018-03-04T06:12:28.905Z,985.29
2018-03-04T06:13:28.817Z,985.38
2018-03-04T06:14:28.789Z,985.38
2018-03-04T06:15:28.774Z,985.43
2018-03-04T06:16:28.760Z,985.48
2018-03-04T06:17:28.724Z,985.44
2018-03-04T06:18:28.712Z,985.41
2018-03-04T06:19:28.701Z,985.47
2018-03-04T06:20:28.678Z,985.43
2018-03-04T06:21:28.665Z,985.48
2018-03-04T06:22:28.647Z,985.50
2018-03-04T06:23:28.667Z,985.49
2018-03-04T06:24:28.585Z,985.47
2018-03-04T06:25:28.571Z,985.43
2018-03-04T06:26:28.548Z,985.41
2018-03-04T06:27:28.537Z,985.37
2018-03-04T06:28:28.514Z,985.38
2018-03-04T06:29:28.534Z,985.37
2018-03-04T06:30:28.476Z,985.33
2018-03-04T06:31:28.472Z,985.35
2018-03-04T06:32:28.442Z,985.30
2018-03-04T06:33:28.442Z,985.33
2018-03-04T06:34:28.456Z,985.36
2018-03-04T06:35:28.380Z,985.32
2018-03-04T06:36:28.353Z,985.34
2018-03-04T06:37:28.331Z,985.30
2018-03-04T06:38:28.313Z,985.30
2018-03-04T06:39:28.290Z,985.35
2018-03-04T06:40:28.274Z,985.34
2018-03-04T06:41:28.258Z,985.35
2018-03-04T06:42:28.233Z,985.33
2018-03-04T06:43:28.283Z,985.36
2018-03-04T06:44:28.204Z,985.29
2018-03-04T06:45:28.184Z,985.27
2018-03-04T06:46:28.150Z,985.32
2018-03-04T06:47:28.142Z,985.28
2018-03-04T06:48:28.116Z,985.30
2018-03-04T06:49:28.130Z,985.28
2018-03-04T06:50:28.079Z,985.29
2018-03-04T06:51:28.066Z,985.32
2018-03-04T06:52:28.037Z,985.33
2018-03-04T06:53:28.012Z,985.36
2018-03-04T06:54:28.039Z,985.35
2018-03-04T06:55:27.985Z,985.36
2018-03-04T06:56:27.953Z,985.38
2018-03-04T06:57:28.007Z,985.36
2018-03-04T06:58:27.923Z,985.38
2018-03-04T06:59:27.910Z,985.45
2018-03-04T07:00:27.884Z,985.43
2018-03-04T07:01:27.870Z,985.42
2018-03-04T07:02:27.853Z,985.46
2018-03-04T07:03:27.835Z,985.45
2018-03-04T07:04:27.811Z,985.46
2018-03-04T07:05:27.789Z,985.51
2018-03-04T07:06:27.773Z,985.50
2018-03-04T07:07:27.782Z,985.51
2018-03-04T07:08:27.766Z,985.52
2018-03-04T07:09:27.704Z,985.50
2018-03-04T07:10:27.745Z,985.49
2018-03-04T07:11:27.664Z,985.52
2018-03-04T07:12:27.656Z,985.48
2018-03-04T07:13:27.656Z,985.46
2018-03-04T07:14:27.772Z,985.45
2018-03-04T07:15:27.592Z,985.48
2018-03-04T07:16:27.578Z,985.45
2018-03-04T07:17:27.558Z,985.51
2018-03-04T07:18:27.540Z,985.55
2018-03-04T07:19:27.548Z,985.54
2018-03-04T07:20:27.493Z,985.59
2018-03-04T07:21:27.484Z,985.60
2018-03-04T07:22:27.452Z,985.58
2018-03-04T07:23:27.485Z,985.57
2018-03-04T07:24:27.416Z,985.56
2018-03-04T07:25:27.406Z,985.59
2018-03-04T07:26:27.379Z,985.60
2018-03-04T07:27:27.359Z,985.58
2018-03-04T07:28:27.339Z,985.56
2018-03-04T07:29:27.317Z,985.55
2018-03-04T07:30:27.337Z,985.56
2018-03-04T07:31:27.273Z,985.55
2018-03-04T07:32:27.262Z,985.56
2018-03-04T07:33:27.241Z,985.54
2018-03-04T07:34:27.224Z,985.56
2018-03-04T07:35:27.280Z,985.59
2018-03-04T07:36:27.180Z,985.63
2018-03-04T07:37:27.168Z,985.62
2018-03-04T07:38:27.155Z,985.66
2018-03-04T07:39:27.129Z,985.65
2018-03-04T07:40:27.121Z,985.66
2018-03-04T07:41:27.112Z,985.64
2018-03-04T07:42:27.076Z,985.68
2018-03-04T07:43:27.100Z,985.66
2018-03-04T07:44:27.040Z,985.67
2018-03-04T07:45:27.014Z,985.66
2018-03-04T07:46:27.049Z,985.66
2018-03-04T07:47:26.982Z,985.64
2018-03-04T07:48:26.961Z,985.63
2018-03-04T07:49:26.943Z,985.64
2018-03-04T07:50:26.920Z,985.62
2018-03-04T07:51:26.906Z,985.65
2018-03-04T07:52:26.917Z,985.60
2018-03-04T07:53:26.863Z,985.61
2018-03-04T07:54:26.855Z,985.63
2018-03-04T07:55:26.834Z,985.62
2018-03-04T07:56:26.807Z,985.59
2018-03-04T07:57:26.796Z,985.58
2018-03-04T07:58:26.779Z,985.58
2018-03-04T07:59:26.760Z,985.59
2018-03-04T08:00:26.748Z,985.58
2018-03-04T08:01:26.724Z,985.60
2018-03-04T08:02:26.692Z,985.58
2018-03-04T08:03:26.685Z,985.60
2018-03-04T08:04:26.689Z,985.56
2018-03-04T08:05:26.651Z,985.57
2018-03-04T08:06:26.630Z,985.56
2018-03-04T08:07:26.673Z,985.56
2018-03-04T08:08:26.589Z,985.56
2018-03-04T08:09:26.579Z,985.62
2018-03-04T08:10:26.551Z,985.64
2018-03-04T08:11:26.554Z,985.60
2018-03-04T08:12:26.523Z,985.64
2018-03-04T08:13:26.520Z,985.63
2018-03-04T08:14:26.467Z,985.63
2018-03-04T08:15:26.450Z,985.60
2018-03-04T08:16:26.441Z,985.61
2018-03-04T08:17:26.424Z,985.61
2018-03-04T08:18:26.490Z,985.58
2018-03-04T08:19:26.382Z,985.58
2018-03-04T08:20:26.358Z,985.58
2018-03-04T08:21:26.515Z,985.54
2018-03-04T08:22:26.327Z,985.57
2018-03-04T08:23:26.297Z,985.55
2018-03-04T08:24:26.516Z,985.55
2018-03-04T08:25:26.274Z,985.51
2018-03-04T08:26:26.249Z,985.55
2018-03-04T08:27:26.234Z,985.55
2018-03-04T08:28:26.212Z,985.60
2018-03-04T08:29:26.208Z,985.58
2018-03-04T08:30:26.181Z,985.56
2018-03-04T08:31:26.165Z,985.56
2018-03-04T08:32:26.140Z,985.55
2018-03-04T08:33:26.120Z,985.48
2018-03-04T08:34:26.110Z,985.54
2018-03-04T08:35:26.158Z,985.56
2018-03-04T08:36:26.074Z,985.58
2018-03-04T08:37:26.060Z,985.62
2018-03-04T08:38:26.022Z,985.62
2018-03-04T08:39:26.030Z,985.62
2018-03-04T08:40:25.993Z,985.60
2018-03-04T08:41:25.979Z,985.69
2018-03-04T08:42:26.087Z,985.64
2018-03-04T08:43:25.948Z,985.62
2018-03-04T08:44:25.972Z,985.64
2018-03-04T08:45:25.906Z,985.63
2018-03-04T08:46:25.886Z,985.67
2018-03-04T08:47:25.869Z,985.63
2018-03-04T08:48:25.853Z,985.61
2018-03-04T08:49:25.832Z,985.60
2018-03-04T08:50:25.959Z,985.61
2018-03-04T08:51:25.807Z,985.62
2018-03-04T08:52:25.783Z,985.57
2018-03-04T08:53:25.770Z,985.60
2018-03-04T08:54:25.988Z,985.61
2018-03-04T08:55:25.753Z,985.60
2018-03-04T08:56:25.699Z,985.57
2018-03-04T08:57:25.694Z,985.55
2018-03-04T08:58:25.735Z,985.59
2018-03-04T08:59:25.654Z,985.60
2018-03-04T09:00:25.630Z,985.59
2018-03-04T09:01:25.627Z,985.58
2018-03-04T09:02:25.605Z,985.58
2018-03-04T09:03:25.620Z,985.60
2018-03-04T09:04:25.575Z,985.58
2018-03-04T09:05:25.544Z,985.57
2018-03-04T09:06:25.539Z,985.59
2018-03-04T09:07:25.526Z,985.60
2018-03-04T09:08:26.440Z,985.62
2018-03-04T09:09:25.809Z,985.60
2018-03-04T09:10:25.499Z,985.66
2018-03-04T09:11:25.462Z,985.65
2018-03-04T09:12:25.434Z,985.67
2018-03-04T09:13:25.410Z,985.65
2018-03-04T09:14:25.662Z,985.71
2018-03-04T09:15:25.381Z,985.72
2018-03-04T09:16:25.363Z,985.75
2018-03-04T09:17:25.348Z,985.72
2018-03-04T09:18:25.330Z,985.71
2018-03-04T09:19:25.309Z,985.73
2018-03-04T09:20:25.297Z,985.75
2018-03-04T09:21:25.272Z,985.72
2018-03-04T09:22:25.256Z,985.68
2018-03-04T09:23:25.282Z,985.67
2018-03-04T09:24:25.238Z,985.68
2018-03-04T09:25:25.260Z,985.67
2018-03-04T09:26:25.186Z,985.71
2018-03-04T09:27:25.178Z,985.71
2018-03-04T09:28:25.162Z,985.76
2018-03-04T09:29:25.145Z,985.69
2018-03-04T09:30:25.184Z,985.77
2018-03-04T09:31:25.104Z,985.69
2018-03-04T09:32:25.085Z,985.69
2018-03-04T09:33:25.076Z,985.66
2018-03-04T09:34:25.053Z,985.67
2018-03-04T09:35:25.043Z,985.65
2018-03-04T09:36:25.024Z,985.65
2018-03-04T09:37:24.997Z,985.65
2018-03-04T09:38:25.038Z,985.68
2018-03-04T09:39:24.970Z,985.68
2018-03-04T09:40:24.965Z,985.68
2018-03-04T09:41:25.938Z,985.64
2018-03-04T09:42:24.917Z,985.64
2018-03-04T09:43:24.933Z,985.62
2018-03-04T09:44:24.889Z,985.65
2018-03-04T09:45:24.871Z,985.67
2018-03-04T09:46:24.856Z,985.68
2018-03-04T09:47:24.902Z,985.71
2018-03-04T09:48:24.822Z,985.73
2018-03-04T09:49:24.818Z,985.72
2018-03-04T09:50:24.801Z,985.69
2018-03-04T09:51:24.775Z,985.73
2018-03-04T09:52:24.765Z,985.70
2018-03-04T09:53:24.742Z,985.70
2018-03-04T09:54:24.850Z,985.72
2018-03-04T09:55:24.704Z,985.74
2018-03-04T09:56:24.705Z,985.73
2018-03-04T09:57:24.673Z,985.65
2018-03-04T09:58:24.685Z,985.68
2018-03-04T09:59:24.683Z,985.65
2018-03-04T10:00:24.620Z,985.62
2018-03-04T10:01:24.611Z,985.54
2018-03-04T10:02:24.603Z,985.52
2018-03-04T10:03:24.610Z,985.50
2018-03-04T10:04:24.594Z,985.50
2018-03-04T10:05:24.549Z,985.51
2018-03-04T10:06:24.539Z,985.48
2018-03-04T10:07:24.515Z,985.43
2018-03-04T10:08:24.531Z,985.38
2018-03-04T10:09:24.518Z,985.38
2018-03-04T10:10:24.467Z,985.42
2018-03-04T10:11:24.456Z,985.43
2018-03-04T10:12:24.427Z,985.47
2018-03-04T10:13:24.406Z,985.52
2018-03-04T10:14:24.462Z,985.56
2018-03-04T10:15:24.375Z,985.57
2018-03-04T10:16:24.384Z,985.57
2018-03-04T10:17:24.361Z,985.52
2018-03-04T10:18:24.328Z,985.59
2018-03-04T10:19:24.320Z,985.65
2018-03-04T10:20:24.312Z,985.59
2018-03-04T10:21:24.281Z,985.56
2018-03-04T10:22:24.280Z,985.61
2018-03-04T10:23:24.253Z,985.59
2018-03-04T10:24:24.442Z,985.59
2018-03-04T10:25:24.246Z,985.51
2018-03-04T10:26:24.202Z,985.46
2018-03-04T10:27:24.193Z,985.44
2018-03-04T10:28:24.247Z,985.44
2018-03-04T10:29:24.162Z,985.45
2018-03-04T10:30:24.143Z,985.45
2018-03-04T10:31:24.127Z,985.45
2018-03-04T10:32:24.120Z,985.41
2018-03-04T10:33:24.106Z,985.41
2018-03-04T10:34:24.103Z,985.36
2018-03-04T10:35:24.061Z,985.36
2018-03-04T10:36:24.044Z,985.30
2018-03-04T10:37:24.026Z,985.28
2018-03-04T10:38:24.017Z,985.26
2018-03-04T10:39:24.025Z,985.28
2018-03-04T10:40:24.014Z,985.28
2018-03-04T10:41:24.002Z,985.29
2018-03-04T10:42:23.956Z,985.29
2018-03-04T10:43:23.940Z,985.29
2018-03-04T10:44:23.917Z,985.34
2018-03-04T10:45:23.933Z,985.30
2018-03-04T10:46:23.930Z,985.29
2018-03-04T10:47:23.876Z,985.28
2018-03-04T10:48:23.859Z,985.26
2018-03-04T10:49:23.836Z,985.25
2018-03-04T10:50:23.826Z,985.22
2018-03-04T10:51:23.840Z,985.21
2018-03-04T10:52:23.852Z,985.23
2018-03-04T10:53:23.782Z,985.26
2018-03-04T10:54:23.770Z,985.24
2018-03-04T10:55:23.755Z,985.22
2018-03-04T10:56:23.739Z,985.21
2018-03-04T10:57:23.723Z,985.18
2018-03-04T10:58:23.735Z,985.20
2018-03-04T10:59:23.693Z,985.15
2018-03-04T11:00:23.669Z,985.14
2018-03-04T11:01:23.700Z,985.18
2018-03-04T11:02:23.646Z,985.16
2018-03-04T11:03:23.645Z,985.19
2018-03-04T11:04:23.619Z,985.20
2018-03-04T11:05:23.614Z,985.23
2018-03-04T11:06:23.622Z,985.26
2018-03-04T11:07:23.577Z,985.33
2018-03-04T11:08:23.589Z,985.35
2018-03-04T11:09:23.541Z,985.33
2018-03-04T11:10:23.540Z,985.39
2018-03-04T11:11:23.553Z,985.42
2018-03-04T11:12:23.505Z,985.46
2018-03-04T11:13:23.487Z,985.46
2018-03-04T11:14:23.476Z,985.48
2018-03-04T11:15:23.473Z,985.43
2018-03-04T11:16:23.514Z,985.34
2018-03-04T11:17:23.428Z,985.34
2018-03-04T11:18:23.421Z,985.33
2018-03-04T11:19:23.403Z,985.29
2018-03-04T11:20:23.394Z,985.33
2018-03-04T11:21:23.384Z,985.34
2018-03-04T11:22:23.374Z,985.35
2018-03-04T11:23:23.354Z,985.38
2018-03-04T11:24:23.341Z,985.35
2018-03-04T11:25:23.323Z,985.38
2018-03-04T11:26:23.370Z,985.37
2018-03-04T11:27:23.301Z,985.42
2018-03-04T11:28:23.294Z,985.28
2018-03-04T11:29:23.280Z,985.27
2018-03-04T11:30:23.260Z,985.19
2018-03-04T11:31:23.259Z,985.12
2018-03-04T11:32:23.252Z,985.10
2018-03-04T11:33:23.241Z,985.19
2018-03-04T11:34:23.213Z,985.17
2018-03-04T11:35:23.207Z,985.16
2018-03-04T11:36:23.200Z,985.18
2018-03-04T11:37:23.225Z,985.18
2018-03-04T11:38:23.175Z,985.19
2018-03-04T11:39:23.230Z,985.24
2018-03-04T11:40:23.157Z,985.24
2018-03-04T11:41:23.140Z,985.28
2018-03-04T11:42:23.197Z,985.27
2018-03-04T11:43:23.128Z,985.36
2018-03-04T11:44:23.112Z,985.40
2018-03-04T11:45:23.113Z,985.42
2018-03-04T11:46:23.087Z,985.43
2018-03-04T11:47:23.088Z,985.42
2018-03-04T11:48:23.121Z,985.31
2018-03-04T11:49:23.057Z,985.31
2018-03-04T11:50:23.044Z,985.29
2018-03-04T11:51:23.029Z,985.28
2018-03-04T11:52:23.037Z,985.28
2018-03-04T11:53:23.030Z,985.27
2018-03-04T11:54:23.302Z,985.24
2018-03-04T11:55:22.990Z,985.23
2018-03-04T11:56:22.985Z,985.22
2018-03-04T11:57:22.970Z,985.19
2018-03-04T11:58:22.972Z,985.19
2018-03-04T11:59:22.988Z,985.18
2018-03-04T12:00:22.947Z,985.16
2018-03-04T12:01:22.943Z,985.10
2018-03-04T12:02:22.927Z,985.08
2018-03-04T12:03:22.928Z,985.02
2018-03-04T12:04:22.954Z,984.99
2018-03-04T12:05:22.899Z,984.97
2018-03-04T12:06:22.891Z,984.97
2018-03-04T12:07:22.885Z,984.98
2018-03-04T12:08:22.873Z,984.96
2018-03-04T12:09:22.895Z,984.98
2018-03-04T12:10:22.860Z,984.97
2018-03-04T12:11:22.883Z,984.98
2018-03-04T12:12:22.839Z,984.98
2018-03-04T12:13:22.840Z,984.95
2018-03-04T12:14:22.818Z,984.86
2018-03-04T12:15:22.855Z,984.86
2018-03-04T12:16:22.818Z,984.90
2018-03-04T12:17:22.793Z,984.87
2018-03-04T12:18:22.795Z,984.86
2018-03-04T12:19:22.797Z,984.94
2018-03-04T12:20:22.783Z,984.94
2018-03-04T12:21:22.779Z,984.98
2018-03-04T12:22:22.768Z,984.93
2018-03-04T12:23:22.762Z,984.91
2018-03-04T12:24:22.743Z,984.90
2018-03-04T12:25:22.759Z,984.87
2018-03-04T12:26:22.726Z,984.83
2018-03-04T12:27:22.717Z,984.87
2018-03-04T12:28:22.724Z,984.84